createdAt,value
2022-09-21T00:01:44.238Z,99.90
2022-09-21T00:04:31.916Z,99.90
2022-09-21T00:07:18.591Z,99.90
2022-09-21T00:10:05.690Z,99.90
2022-09-21T00:12:52.047Z,99.90
2022-09-21T00:15:40.931Z,99.90
2022-09-21T00:18:27.646Z,99.90
2022-09-21T00:21:16.916Z,99.90
2022-09-21T00:24:04.424Z,99.90
2022-09-21T00:26:50.948Z,99.90
2022-09-21T00:29:37.395Z,99.90
2022-09-21T00:32:25.120Z,99.90
2022-09-21T00:35:11.742Z,99.90
2022-09-21T00:38:03.354Z,99.90
2022-09-21T00:40:49.780Z,99.90
2022-09-21T00:43:37.858Z,99.90
2022-09-21T00:46:30.044Z,99.90
2022-09-21T00:49:17.288Z,99.90
2022-09-21T00:52:06.023Z,99.90
2022-09-21T00:54:57.665Z,99.90
2022-09-21T00:57:48.003Z,99.90
2022-09-21T01:00:34.575Z,99.90
2022-09-21T01:03:21.005Z,99.90
2022-09-21T01:06:07.626Z,99.90
2022-09-21T01:08:59.082Z,99.90
2022-09-21T01:11:56.156Z,99.90
2022-09-21T01:14:58.183Z,99.90
2022-09-21T01:17:52.092Z,99.90
2022-09-21T01:21:03.424Z,99.90
2022-09-21T01:24:15.844Z,99.90
2022-09-21T01:27:46.727Z,99.90
2022-09-21T01:30:37.936Z,99.90
2022-09-21T01:33:27.355Z,99.90
2022-09-21T01:36:17.114Z,99.90
2022-09-21T01:39:07.520Z,99.90
2022-09-21T01:41:55.173Z,99.90
2022-09-21T01:44:43.490Z,99.90
2022-09-21T01:47:32.573Z,99.90
2022-09-21T01:50:21.442Z,99.90
2022-09-21T01:53:12.222Z,99.90
2022-09-21T01:56:01.908Z,99.90
2022-09-21T01:58:54.389Z,99.90
2022-09-21T02:01:47.783Z,99.90
2022-09-21T02:04:36.532Z,99.90
2022-09-21T02:07:23.014Z,99.90
2022-09-21T02:10:14.235Z,99.90
2022-09-21T02:13:06.270Z,99.90
2022-09-21T02:16:08.899Z,99.90
2022-09-21T02:19:09.263Z,99.90
2022-09-21T02:22:06.039Z,99.90
2022-09-21T02:24:58.635Z,99.90
2022-09-21T02:27:51.581Z,99.90
2022-09-21T02:30:39.315Z,99.90
2022-09-21T02:33:32.384Z,99.90
2022-09-21T02:36:23.296Z,99.90
2022-09-21T02:39:17.308Z,99.90
2022-09-21T02:42:10.835Z,99.90
2022-09-21T02:45:05.814Z,99.90
2022-09-21T02:47:59.056Z,99.90
2022-09-21T02:50:49.537Z,99.90
2022-09-21T02:53:38.664Z,99.90
2022-09-21T02:56:27.535Z,99.90
2022-09-21T02:59:14.148Z,99.90
2022-09-21T03:02:00.786Z,99.90
2022-09-21T03:04:50.022Z,99.90
2022-09-21T03:07:36.706Z,99.90
2022-09-21T03:10:23.230Z,99.90
2022-09-21T03:13:11.330Z,99.90
2022-09-21T03:16:02.609Z,99.90
2022-09-21T03:18:49.415Z,99.90
2022-09-21T03:21:35.881Z,99.90
2022-09-21T03:24:36.590Z,99.90
2022-09-21T03:27:24.173Z,99.90
2022-09-21T03:30:13.619Z,99.90
2022-09-21T03:33:00.070Z,99.90
2022-09-21T03:35:46.620Z,99.90
2022-09-21T03:38:33.223Z,99.90
2022-09-21T03:41:19.650Z,99.90
2022-09-21T03:44:06.216Z,99.90
2022-09-21T03:46:54.298Z,99.90
2022-09-21T03:49:41.018Z,99.90
2022-09-21T03:52:27.752Z,99.90
2022-09-21T03:55:14.087Z,99.90
2022-09-21T03:58:01.803Z,99.90
2022-09-21T04:00:48.244Z,99.90
2022-09-21T04:03:36.019Z,99.90
2022-09-21T04:06:22.606Z,99.90
2022-09-21T04:09:09.385Z,99.90
2022-09-21T04:11:56.232Z,99.90
2022-09-21T04:14:42.938Z,99.90
2022-09-21T04:17:31.190Z,99.90
2022-09-21T04:20:19.572Z,99.90
2022-09-21T04:23:09.892Z,99.90
2022-09-21T04:25:57.536Z,99.90
2022-09-21T04:28:43.811Z,99.90
2022-09-21T04:31:31.070Z,99.90
2022-09-21T04:34:17.702Z,99.90
2022-09-21T04:37:05.529Z,99.90
2022-09-21T04:39:52.122Z,99.90
2022-09-21T04:42:38.682Z,99.90
2022-09-21T04:45:25.679Z,99.90
2022-09-21T04:48:12.492Z,99.90
2022-09-21T04:50:58.958Z,99.90
2022-09-21T04:53:46.893Z,99.90
2022-09-21T04:56:33.501Z,99.90
2022-09-21T04:59:20.144Z,99.90
2022-09-21T05:02:06.446Z,99.90
2022-09-21T05:04:52.790Z,99.90
2022-09-21T05:07:39.055Z,99.90
2022-09-21T05:10:25.971Z,99.90
2022-09-21T05:13:14.736Z,99.90
2022-09-21T05:16:04.777Z,99.90
2022-09-21T05:18:55.130Z,99.90
2022-09-21T05:21:41.447Z,99.90
2022-09-21T05:24:27.892Z,99.90
2022-09-21T05:27:15.780Z,99.90
2022-09-21T05:30:02.700Z,99.90
2022-09-21T05:32:57.126Z,99.90
2022-09-21T05:35:55.355Z,99.90
2022-09-21T05:38:43.069Z,99.90
2022-09-21T05:41:29.987Z,99.90
2022-09-21T05:44:18.399Z,99.90
2022-09-21T05:47:13.206Z,99.90
2022-09-21T05:50:07.180Z,99.90
2022-09-21T05:53:07.188Z,99.90
2022-09-21T05:55:57.938Z,99.90
2022-09-21T05:58:53.427Z,99.90
2022-09-21T06:01:54.257Z,99.90
2022-09-21T06:04:41.441Z,99.90
2022-09-21T06:07:28.043Z,99.90
2022-09-21T06:10:15.814Z,99.90
2022-09-21T06:13:02.721Z,99.90
2022-09-21T06:15:49.184Z,99.90
2022-09-21T06:18:40.288Z,99.90
2022-09-21T06:21:26.792Z,99.90
2022-09-21T06:24:13.143Z,99.90
2022-09-21T06:26:59.507Z,99.90
2022-09-21T06:29:45.850Z,99.90
2022-09-21T06:32:32.460Z,99.90
2022-09-21T06:35:20.287Z,99.90
2022-09-21T06:38:08.548Z,99.90
2022-09-21T06:40:55.520Z,99.90
2022-09-21T06:43:42.103Z,99.90
2022-09-21T06:46:28.704Z,99.90
2022-09-21T06:49:15.299Z,99.90
2022-09-21T06:52:04.416Z,99.90
2022-09-21T06:54:50.875Z,99.90
2022-09-21T06:57:38.014Z,99.90
2022-09-21T07:00:24.664Z,99.90
2022-09-21T07:03:12.829Z,99.90
2022-09-21T07:05:59.377Z,99.90
2022-09-21T07:11:56.748Z,99.90
2022-09-21T07:14:44.426Z,99.90
2022-09-21T07:17:33.532Z,99.90
2022-09-21T07:20:20.197Z,99.90
2022-09-21T07:23:11.994Z,99.90
2022-09-21T07:26:03.314Z,99.90
2022-09-21T07:28:49.717Z,99.90
2022-09-21T07:31:36.121Z,99.90
2022-09-21T07:34:22.588Z,99.90
2022-09-21T07:37:09.197Z,99.90
2022-09-21T07:39:56.460Z,99.90
2022-09-21T07:42:45.254Z,99.90
2022-09-21T07:45:32.244Z,99.90
2022-09-21T07:48:18.834Z,99.90
2022-09-21T07:51:06.807Z,99.90
2022-09-21T07:53:57.328Z,99.90
2022-09-21T07:57:04.045Z,99.90
2022-09-21T07:59:50.916Z,99.90
2022-09-21T08:02:37.309Z,99.90
2022-09-21T08:05:23.652Z,99.90
2022-09-21T08:08:10.055Z,99.90
2022-09-21T08:10:57.636Z,99.90
2022-09-21T08:13:44.560Z,99.90
2022-09-21T08:16:34.021Z,99.90
2022-09-21T08:19:21.391Z,99.90
2022-09-21T08:22:08.382Z,99.90
2022-09-21T08:24:57.121Z,99.90
2022-09-21T08:27:43.970Z,99.90
2022-09-21T08:30:31.926Z,99.90
2022-09-21T08:33:19.503Z,99.90
2022-09-21T08:36:06.575Z,99.90
2022-09-21T08:38:55.085Z,99.90
2022-09-21T08:41:59.354Z,99.90
2022-09-21T08:44:52.382Z,99.90
2022-09-21T08:47:43.548Z,99.90
2022-09-21T08:50:37.272Z,99.90
2022-09-21T08:53:30.938Z,99.90
2022-09-21T08:56:17.796Z,99.90
2022-09-21T08:59:04.228Z,99.90
2022-09-21T09:01:59.627Z,99.90
2022-09-21T09:04:55.588Z,99.90
2022-09-21T09:08:16.904Z,99.90
2022-09-21T09:11:18.431Z,99.90
2022-09-21T09:14:27.887Z,99.90
2022-09-21T09:17:30.277Z,99.90
2022-09-21T09:20:22.246Z,99.90
2022-09-21T09:23:16.135Z,99.90
2022-09-21T09:26:06.890Z,99.90
2022-09-21T09:28:57.204Z,99.90
2022-09-21T09:31:43.977Z,99.90
2022-09-21T09:34:34.778Z,99.90
2022-09-21T09:37:25.902Z,99.90
2022-09-21T09:40:15.521Z,99.90
2022-09-21T09:43:10.272Z,99.90
2022-09-21T09:46:04.524Z,99.90
2022-09-21T09:49:14.512Z,99.90
2022-09-21T09:52:01.127Z,99.90
2022-09-21T09:54:48.482Z,99.90
2022-09-21T09:57:36.560Z,99.90
2022-09-21T10:00:23.813Z,99.90
2022-09-21T10:03:17.875Z,99.90
2022-09-21T10:06:04.689Z,99.90
2022-09-21T10:08:53.206Z,99.90
2022-09-21T10:11:40.055Z,99.90
2022-09-21T10:14:32.534Z,99.90
2022-09-21T10:17:20.842Z,99.90
2022-09-21T10:20:14.991Z,99.90
2022-09-21T10:23:01.994Z,99.90
2022-09-21T10:25:55.488Z,99.90
2022-09-21T10:28:57.483Z,99.90
2022-09-21T10:31:56.266Z,99.90
2022-09-21T10:35:00.683Z,99.90
2022-09-21T10:37:50.956Z,99.90
2022-09-21T10:40:39.315Z,99.90
2022-09-21T10:43:38.666Z,99.90
2022-09-21T10:46:35.553Z,99.90
2022-09-21T10:49:26.693Z,99.90
2022-09-21T10:52:13.399Z,99.90
2022-09-21T10:55:00.306Z,99.90
2022-09-21T10:57:47.783Z,99.90
2022-09-21T11:00:42.086Z,99.90
2022-09-21T11:03:43.743Z,99.90
2022-09-21T11:06:35.198Z,99.90
2022-09-21T11:09:27.694Z,99.90
2022-09-21T11:12:29.634Z,99.90
2022-09-21T11:15:24.503Z,99.90
2022-09-21T11:18:19.391Z,99.90
2022-09-21T11:21:11.978Z,99.90
2022-09-21T11:24:07.652Z,99.90
2022-09-21T11:26:59.222Z,99.90
2022-09-21T11:29:55.412Z,99.90
2022-09-21T11:32:57.355Z,99.90
2022-09-21T11:35:54.812Z,99.90
2022-09-21T11:38:55.306Z,99.90
2022-09-21T11:42:06.590Z,99.90
2022-09-21T11:44:56.321Z,99.90
2022-09-21T11:48:01.699Z,99.90
2022-09-21T11:51:00.110Z,99.90
2022-09-21T11:54:06.719Z,99.90
2022-09-21T11:57:01.206Z,99.90
2022-09-21T12:00:05.440Z,99.90
2022-09-21T12:03:22.470Z,99.90
2022-09-21T12:06:26.620Z,99.90
2022-09-21T12:09:34.512Z,99.90
2022-09-21T12:12:26.627Z,99.90
2022-09-21T12:15:19.729Z,99.90
2022-09-21T12:18:11.611Z,99.90
2022-09-21T12:21:06.740Z,99.90
2022-09-21T12:23:56.098Z,99.90
2022-09-21T12:26:45.560Z,99.90
2022-09-21T12:29:41.627Z,99.90
2022-09-21T12:32:40.577Z,99.90
2022-09-21T12:35:35.268Z,99.90
2022-09-21T12:38:27.917Z,99.90
2022-09-21T12:41:19.753Z,99.90
2022-09-21T12:44:17.884Z,99.90
2022-09-21T12:47:10.208Z,99.90
2022-09-21T12:50:05.127Z,99.90
2022-09-21T12:52:53.573Z,99.90
2022-09-21T12:55:47.445Z,99.90
2022-09-21T12:59:01.324Z,99.90
2022-09-21T13:01:57.283Z,99.90
2022-09-21T13:04:55.891Z,99.90
2022-09-21T13:08:10.470Z,99.90
2022-09-21T13:11:04.576Z,99.90
2022-09-21T13:13:53.844Z,99.90
2022-09-21T13:16:41.049Z,99.90
2022-09-21T13:19:30.932Z,99.90
2022-09-21T13:22:25.509Z,99.90
2022-09-21T13:25:22.560Z,99.90
2022-09-21T13:28:24.231Z,99.90
2022-09-21T13:31:41.515Z,99.90
2022-09-21T13:34:36.814Z,99.90
2022-09-21T13:37:33.723Z,99.90
2022-09-21T13:40:50.271Z,99.90
2022-09-21T13:43:48.202Z,99.90
2022-09-21T13:46:54.867Z,99.90
2022-09-21T13:49:54.824Z,99.90
2022-09-21T13:52:52.177Z,99.90
2022-09-21T13:55:41.032Z,99.90
2022-09-21T13:58:32.178Z,99.90
2022-09-21T14:01:45.648Z,99.90
2022-09-21T14:04:32.180Z,99.90
2022-09-21T14:07:19.577Z,99.90
2022-09-21T14:10:10.116Z,99.90
2022-09-21T14:12:56.645Z,99.90
2022-09-21T14:15:43.178Z,99.90
2022-09-21T14:18:39.255Z,99.90
2022-09-21T14:21:25.670Z,99.90
2022-09-21T14:24:36.217Z,99.90
2022-09-21T14:27:29.345Z,99.90
2022-09-21T14:30:21.771Z,99.90
2022-09-21T14:33:29.180Z,99.90
2022-09-21T14:36:20.753Z,99.90
2022-09-21T14:39:16.549Z,99.90
2022-09-21T14:42:12.527Z,99.90
2022-09-21T14:45:03.983Z,99.90
2022-09-21T14:48:05.883Z,99.90
2022-09-21T14:50:58.268Z,99.90
2022-09-21T14:54:06.378Z,99.90
2022-09-21T14:57:08.637Z,99.90
2022-09-21T15:00:14.381Z,99.90
2022-09-21T15:03:24.444Z,99.90
2022-09-21T15:06:37.844Z,99.90
2022-09-21T15:09:56.786Z,99.90
2022-09-21T15:12:53.534Z,99.90
2022-09-21T15:15:49.135Z,99.90
2022-09-21T15:18:41.994Z,99.90
2022-09-21T15:21:30.796Z,99.90
2022-09-21T15:24:31.892Z,99.90
2022-09-21T15:27:20.568Z,99.90
2022-09-21T15:30:07.955Z,99.90
2022-09-21T15:32:58.884Z,99.90
2022-09-21T15:35:48.215Z,99.90
2022-09-21T15:38:36.636Z,99.90
2022-09-21T15:41:40.102Z,99.90
2022-09-21T15:44:33.732Z,99.90
2022-09-21T15:47:23.380Z,99.90
2022-09-21T15:50:15.343Z,99.50
2022-09-21T15:53:05.758Z,98.90
2022-09-21T15:55:52.619Z,99.90
2022-09-21T15:58:40.486Z,99.30
2022-09-21T16:01:28.194Z,99.10
2022-09-21T16:04:19.501Z,97.00
2022-09-21T16:07:15.233Z,98.10
2022-09-21T16:10:02.278Z,97.80
2022-09-21T16:12:49.056Z,99.90
2022-09-21T16:15:34.385Z,99.70
2022-09-21T16:18:35.253Z,99.90
2022-09-21T16:21:26.360Z,99.90
2022-09-21T16:24:20.644Z,99.90
2022-09-21T16:27:07.303Z,99.90
2022-09-21T16:29:55.859Z,99.90
2022-09-21T16:32:44.239Z,99.90
2022-09-21T16:35:41.062Z,99.90
2022-09-21T16:38:28.302Z,99.90
2022-09-21T16:41:17.884Z,99.90
2022-09-21T16:44:05.921Z,99.90
2022-09-21T16:46:56.091Z,99.90
2022-09-21T16:49:43.849Z,99.90
2022-09-21T16:52:32.296Z,99.90
2022-09-21T16:55:20.140Z,99.90
2022-09-21T16:58:10.737Z,99.90
2022-09-21T17:01:00.854Z,99.90
2022-09-21T17:03:48.399Z,99.90
2022-09-21T17:06:40.074Z,99.90
2022-09-21T17:09:29.854Z,99.90
2022-09-21T17:12:18.616Z,99.90
2022-09-21T17:15:07.878Z,99.90
2022-09-21T17:17:54.500Z,99.90
2022-09-21T17:20:42.980Z,99.90
2022-09-21T17:23:29.907Z,99.90
2022-09-21T17:26:19.313Z,99.90
2022-09-21T17:29:16.959Z,99.90
2022-09-21T17:32:10.445Z,99.90
2022-09-21T17:35:01.639Z,99.90
2022-09-21T17:37:48.214Z,99.90
2022-09-21T17:40:35.647Z,99.90
2022-09-21T17:43:38.174Z,99.90
2022-09-21T17:46:29.075Z,99.90
2022-09-21T17:49:17.598Z,99.90
2022-09-21T17:52:21.940Z,99.90
2022-09-21T17:55:12.453Z,99.90
2022-09-21T17:58:14.685Z,99.90
2022-09-21T18:01:04.834Z,99.90
2022-09-21T18:03:51.956Z,99.90
2022-09-21T18:06:40.610Z,99.90
2022-09-21T18:09:27.852Z,99.90
2022-09-21T18:13:07.244Z,99.90
2022-09-21T18:16:06.140Z,99.90
2022-09-21T18:19:02.503Z,99.90
2022-09-21T18:21:53.152Z,99.90
2022-09-21T18:24:40.252Z,99.90
2022-09-21T18:27:27.474Z,99.90
2022-09-21T18:30:14.453Z,99.90
2022-09-21T18:33:12.471Z,99.90
2022-09-21T18:36:16.340Z,99.90
2022-09-21T18:39:19.962Z,99.90
2022-09-21T18:42:27.354Z,99.90
2022-09-21T18:45:21.236Z,99.90
2022-09-21T18:48:19.735Z,99.90
2022-09-21T18:51:15.668Z,99.90
2022-09-21T18:54:02.614Z,99.90
2022-09-21T18:56:51.524Z,99.90
2022-09-21T18:59:38.601Z,99.90
2022-09-21T19:02:25.867Z,99.90
2022-09-21T19:05:14.008Z,99.90
2022-09-21T19:08:10.281Z,99.90
2022-09-21T19:11:03.614Z,99.90
2022-09-21T19:14:01.436Z,99.90
2022-09-21T19:17:02.735Z,99.90
2022-09-21T19:20:01.062Z,99.90
2022-09-21T19:22:55.559Z,99.90
2022-09-21T19:25:49.746Z,99.90
2022-09-21T19:28:55.818Z,99.90
2022-09-21T19:31:42.732Z,99.90
2022-09-21T19:34:29.680Z,99.90
2022-09-21T19:37:16.226Z,99.90
2022-09-21T19:40:03.376Z,99.90
2022-09-21T19:43:15.839Z,99.90
2022-09-21T19:46:14.813Z,99.90
2022-09-21T19:49:14.281Z,99.90
2022-09-21T19:52:05.992Z,99.90
2022-09-21T19:55:10.340Z,99.90
2022-09-21T19:58:14.760Z,99.90
2022-09-21T20:01:01.786Z,99.90
2022-09-21T20:03:51.535Z,99.90
2022-09-21T20:06:43.558Z,99.90
2022-09-21T20:09:37.939Z,99.90
2022-09-21T20:12:30.836Z,99.90
2022-09-21T20:15:22.074Z,99.90
2022-09-21T20:18:15.728Z,99.90
2022-09-21T20:21:04.192Z,99.90
2022-09-21T20:23:58.120Z,99.90
2022-09-21T20:26:46.346Z,99.90
2022-09-21T20:29:33.038Z,99.90
2022-09-21T20:32:20.219Z,99.90
2022-09-21T20:35:14.108Z,99.90
2022-09-21T20:38:03.157Z,99.90
2022-09-21T20:40:51.449Z,99.90
2022-09-21T20:43:38.134Z,99.90
2022-09-21T20:46:24.406Z,99.90
2022-09-21T20:49:15.320Z,99.90
2022-09-21T20:52:02.422Z,99.90
2022-09-21T20:54:50.408Z,99.90
2022-09-21T20:57:37.538Z,99.90
2022-09-21T21:00:24.099Z,99.90
2022-09-21T21:03:12.604Z,99.90
2022-09-21T21:06:09.530Z,99.90
2022-09-21T21:08:56.173Z,99.90
2022-09-21T21:11:44.000Z,99.90
2022-09-21T21:14:30.824Z,99.90
2022-09-21T21:17:17.216Z,99.90
2022-09-21T21:20:04.056Z,99.90
2022-09-21T21:22:51.136Z,99.90
2022-09-21T21:25:37.391Z,99.90
2022-09-21T21:28:25.261Z,99.90
2022-09-21T21:31:12.081Z,99.90
2022-09-21T21:33:58.876Z,99.90
2022-09-21T21:36:45.634Z,99.90
2022-09-21T21:39:32.158Z,99.90
2022-09-21T21:42:19.154Z,99.90
2022-09-21T21:45:08.192Z,99.90
2022-09-21T21:47:55.966Z,99.90
2022-09-21T21:50:42.571Z,99.90
2022-09-21T21:53:29.796Z,99.90
2022-09-21T21:56:18.735Z,99.90
2022-09-21T21:59:05.736Z,99.90
2022-09-21T22:01:54.537Z,99.90
2022-09-21T22:04:42.184Z,99.90
2022-09-21T22:07:28.756Z,99.90
2022-09-21T22:10:15.083Z,99.90
2022-09-21T22:13:01.516Z,99.90
2022-09-21T22:15:47.953Z,99.90
2022-09-21T22:18:37.261Z,99.90
2022-09-21T22:21:26.220Z,99.90
2022-09-21T22:24:12.796Z,99.90
2022-09-21T22:26:59.517Z,99.90
2022-09-21T22:29:46.052Z,99.90
2022-09-21T22:32:32.414Z,99.90
2022-09-21T22:35:20.123Z,99.90
2022-09-21T22:38:11.263Z,99.90
2022-09-21T22:40:57.573Z,99.90
2022-09-21T22:43:44.561Z,99.90
2022-09-21T22:46:32.222Z,99.90
2022-09-21T22:49:18.836Z,99.90
2022-09-21T22:52:06.621Z,99.90
2022-09-21T22:54:52.876Z,99.90
2022-09-21T22:57:39.131Z,99.90
2022-09-21T23:00:25.478Z,99.90
2022-09-21T23:03:12.014Z,99.90
2022-09-21T23:05:58.667Z,99.90
2022-09-21T23:08:50.046Z,99.90
2022-09-21T23:11:39.427Z,99.90
2022-09-21T23:14:26.150Z,99.90
2022-09-21T23:17:12.626Z,99.90
2022-09-21T23:19:58.836Z,99.90
2022-09-21T23:22:45.425Z,99.90
2022-09-21T23:25:33.441Z,99.90
2022-09-21T23:28:19.975Z,99.90
2022-09-21T23:31:08.618Z,99.90
2022-09-21T23:33:57.331Z,99.90
2022-09-21T23:36:45.730Z,99.90
2022-09-21T23:39:32.401Z,99.90
2022-09-21T23:42:20.132Z,99.90
2022-09-21T23:45:07.394Z,99.90
2022-09-21T23:47:53.760Z,99.90
2022-09-21T23:50:40.174Z,99.90
2022-09-21T23:53:28.440Z,99.90
2022-09-21T23:56:18.440Z,99.90
2022-09-21T23:59:06.738Z,99.90
